Time;durP1;ratioP1;P1;durP2;ratioP2;P2;SDS_P1;SDS_P2;PMS_P1;PMS_P2;Temp;Humidity;BMP_temperature;BMP_pressure;BME280_temperature;BME280_humidity;BME280_pressure;Samples;Min_cycle;Max_cycle;Signal;HPM_P1;HPM_P2
2021/07/15 00:02:09;;;;;;;6.95;5.50;;;20.00;93.40;;;;;;5050189;28;20037;-61
2021/07/15 00:04:35;;;;;;;6.05;4.70;;;20.00;93.70;;;;;;5050178;28;20029;-61
2021/07/15 00:07:00;;;;;;;6.70;5.50;;;19.90;93.80;;;;;;5039757;28;20041;-62
2021/07/15 00:09:26;;;;;;;7.53;5.40;;;19.90;93.90;;;;;;5051178;28;20037;-62
2021/07/15 00:11:52;;;;;;;7.68;5.22;;;20.00;93.90;;;;;;5051236;28;20075;-62
2021/07/15 00:14:19;;;;;;;5.60;4.75;;;20.00;93.70;;;;;;5051788;28;20053;-61
2021/07/15 00:16:45;;;;;;;5.80;5.13;;;19.90;93.80;;;;;;5057924;28;20052;-62
2021/07/15 00:19:12;;;;;;;6.63;5.32;;;19.90;93.70;;;;;;5039919;28;20064;-62
2021/07/15 00:21:38;;;;;;;6.78;5.32;;;19.90;93.90;;;;;;5056005;28;20017;-59
2021/07/15 00:24:04;;;;;;;7.05;5.63;;;19.80;94.10;;;;;;5059557;28;20500;-62
2021/07/15 00:26:30;;;;;;;6.28;5.30;;;19.80;94.20;;;;;;5058150;28;20041;-61
2021/07/15 00:28:55;;;;;;;7.00;6.22;;;19.80;94.10;;;;;;5057029;28;20040;-61
2021/07/15 00:31:21;;;;;;;6.55;5.35;;;19.80;94.30;;;;;;5052912;28;20036;-62
2021/07/15 00:33:47;;;;;;;5.93;4.80;;;19.80;93.90;;;;;;5056500;28;20082;-62
2021/07/15 00:36:13;;;;;;;5.68;5.18;;;19.80;93.90;;;;;;5039550;28;20186;-62
2021/07/15 00:38:39;;;;;;;5.22;4.72;;;19.70;94.00;;;;;;5057403;28;20492;-62
2021/07/15 00:41:05;;;;;;;5.30;4.80;;;19.70;94.00;;;;;;5047538;28;20025;-62
2021/07/15 00:43:31;;;;;;;6.88;5.30;;;19.60;94.20;;;;;;5044117;28;20041;-62
2021/07/15 00:45:57;;;;;;;5.25;4.75;;;19.60;94.20;;;;;;5055780;28;20062;-61
2021/07/15 00:48:23;;;;;;;6.53;5.82;;;19.50;94.30;;;;;;5056633;28;20143;-62
2021/07/15 00:50:48;;;;;;;6.80;6.20;;;19.50;94.50;;;;;;5044373;28;20391;-62
2021/07/15 00:53:16;;;;;;;6.40;5.25;;;19.50;94.60;;;;;;5050374;28;20029;-59
2021/07/15 00:55:43;;;;;;;5.43;4.93;;;19.50;94.50;;;;;;5053034;28;20033;-61
2021/07/15 00:58:11;;;;;;;6.63;5.10;;;19.50;94.50;;;;;;5056493;28;20021;-61
2021/07/15 01:00:39;;;;;;;6.47;5.22;;;19.50;94.30;;;;;;5053814;28;20056;-61
2021/07/15 01:03:07;;;;;;;7.10;5.43;;;19.50;94.30;;;;;;5056634;28;20036;-62
2021/07/15 01:05:35;;;;;;;6.07;5.47;;;19.40;94.40;;;;;;5052464;28;20055;-61
2021/07/15 01:08:04;;;;;;;7.93;5.28;;;19.50;94.60;;;;;;5054440;28;20036;-62
2021/07/15 01:10:35;;;;;;;7.15;5.63;;;19.30;94.90;;;;;;5051589;28;20041;-62
2021/07/15 01:13:29;;;;;;;6.70;5.45;;;19.30;94.70;;;;;;5055154;28;20037;-61
2021/07/15 01:16:03;;;;;;;5.82;5.00;;;19.30;94.50;;;;;;5056554;28;20127;-61
2021/07/15 01:19:00;;;;;;;5.68;5.18;;;19.30;94.60;;;;;;5054141;28;20032;-61
2021/07/15 01:21:26;;;;;;;6.20;5.65;;;19.30;94.80;;;;;;5046631;28;20041;-60
2021/07/15 01:24:27;;;;;;;7.15;5.25;;;19.40;94.70;;;;;;5038561;28;20033;-62
2021/07/15 01:27:11;;;;;;;6.22;5.63;;;19.50;94.70;;;;;;5050705;28;20682;-63
2021/07/15 01:30:05;;;;;;;6.03;5.43;;;19.50;94.60;;;;;;5053306;28;20040;-63
2021/07/15 01:32:53;;;;;;;35.45;20.15;;;19.50;94.50;;;;;;5040617;28;20390;-63
2021/07/15 01:35:25;;;;;;;28.52;16.30;;;19.50;94.60;;;;;;5053198;28;20408;-61
2021/07/15 01:37:53;;;;;;;13.65;10.05;;;19.40;94.80;;;;;;5053461;28;20480;-62
2021/07/15 01:40:25;;;;;;;9.82;7.63;;;19.50;94.70;;;;;;5040264;28;20051;-61
2021/07/15 01:43:02;;;;;;;7.53;6.32;;;19.50;94.60;;;;;;5040705;28;20045;-62
2021/07/15 01:45:30;;;;;;;7.00;6.30;;;19.50;94.50;;;;;;5049220;28;20512;-62
2021/07/15 01:47:56;;;;;;;7.97;6.22;;;19.50;94.60;;;;;;5053102;28;20550;-60
2021/07/15 01:50:22;;;;;;;8.30;7.25;;;19.50;94.80;;;;;;5053318;28;20442;-62
2021/07/15 01:52:51;;;;;;;10.45;8.52;;;19.40;95.00;;;;;;5053356;28;20041;-61
2021/07/15 01:55:17;;;;;;;7.85;7.03;;;19.40;95.20;;;;;;5052594;28;20037;-62
2021/07/15 01:57:45;;;;;;;7.50;6.22;;;19.40;95.10;;;;;;5052667;28;20029;-62
2021/07/15 02:00:11;;;;;;;9.43;6.38;;;19.40;95.20;;;;;;5053041;28;20041;-62
2021/07/15 02:02:39;;;;;;;9.13;6.60;;;19.40;95.30;;;;;;5052949;28;20112;-62
2021/07/15 02:05:07;;;;;;;10.20;8.00;;;19.40;95.30;;;;;;5047307;28;20405;-61
2021/07/15 02:07:34;;;;;;;10.32;8.98;;;19.40;95.40;;;;;;5050341;28;20044;-61
2021/07/15 02:10:00;;;;;;;11.18;9.57;;;19.40;95.40;;;;;;5052736;28;20041;-62
2021/07/15 02:12:28;;;;;;;10.05;9.05;;;19.30;95.40;;;;;;5052700;28;20043;-60
2021/07/15 02:14:55;;;;;;;10.15;7.60;;;19.30;95.40;;;;;;5052591;28;20033;-60
2021/07/15 02:17:23;;;;;;;7.78;6.57;;;19.30;95.40;;;;;;5034613;28;20021;-62
2021/07/15 02:19:49;;;;;;;7.93;6.85;;;19.20;95.50;;;;;;5039188;28;20033;-61
2021/07/15 02:22:17;;;;;;;6.60;6.00;;;19.20;96.00;;;;;;5051673;28;20036;-61
2021/07/15 02:24:46;;;;;;;5.82;5.07;;;19.10;95.70;;;;;;5052534;28;20098;-62
2021/07/15 02:27:13;;;;;;;6.38;5.82;;;19.10;95.70;;;;;;5052137;28;20140;-61
2021/07/15 02:29:38;;;;;;;6.80;5.80;;;19.00;95.80;;;;;;5052471;28;20040;-61
2021/07/15 02:32:06;;;;;;;6.53;5.22;;;18.90;95.70;;;;;;5052222;28;20124;-61
2021/07/15 02:35:03;;;;;;;8.90;6.70;;;18.90;95.70;;;;;;5044739;28;20037;-62
2021/07/15 02:37:36;;;;;;;8.40;6.32;;;18.80;95.90;;;;;;5044527;28;20120;-61
2021/07/15 02:40:10;;;;;;;7.57;6.18;;;18.70;96.20;;;;;;5043384;28;20511;-62
2021/07/15 02:42:35;;;;;;;;;;;18.70;96.40;;;;;;5045408;28;20033;-61
2021/07/15 02:45:01;;;;;;;7.63;5.78;;;18.60;96.50;;;;;;5044353;28;19919;-60
2021/07/15 02:47:27;;;;;;;6.55;5.93;;;18.60;96.90;;;;;;5051790;28;20044;-62
2021/07/15 02:49:53;;;;;;;6.47;5.88;;;18.60;96.80;;;;;;5052037;28;20037;-62
2021/07/15 02:52:18;;;;;;;8.40;5.82;;;18.60;96.70;;;;;;5052046;28;20037;-62
2021/07/15 02:54:44;;;;;;;8.70;6.40;;;18.50;96.70;;;;;;5051930;28;20045;-61
2021/07/15 02:57:31;;;;;;;8.20;5.78;;;18.50;96.80;;;;;;5051811;28;20109;-60
2021/07/15 03:00:14;;;;;;;7.03;6.03;;;18.50;96.50;;;;;;5051903;28;20037;-62
2021/07/15 03:03:34;;;;;;;7.10;6.40;;;18.50;96.70;;;;;;5051335;28;20033;-62
2021/07/15 03:06:11;;;;;;;6.85;6.25;;;18.40;96.70;;;;;;4999736;28;20067;-59
2021/07/15 03:08:54;;;;;;;11.38;6.47;;;18.30;97.10;;;;;;5048855;28;20124;-62
2021/07/15 03:11:22;;;;;;;6.85;6.07;;;18.30;97.20;;;;;;5051584;28;20041;-62
2021/07/15 03:13:49;;;;;;;8.30;6.65;;;18.30;97.00;;;;;;5051615;28;20056;-63
2021/07/15 03:16:16;;;;;;;8.77;6.40;;;18.10;97.40;;;;;;5051598;28;20086;-61
2021/07/15 03:18:45;;;;;;;8.95;7.20;;;18.10;97.60;;;;;;5047444;28;20030;-61
2021/07/15 03:21:12;;;;;;;9.05;7.47;;;18.10;97.60;;;;;;5044424;28;20090;-62
2021/07/15 03:23:40;;;;;;;7.60;6.90;;;18.10;97.70;;;;;;5034307;28;20623;-62
2021/07/15 03:26:08;;;;;;;7.70;6.57;;;18.20;97.50;;;;;;5050953;28;20033;-62
2021/07/15 03:28:36;;;;;;;9.52;7.18;;;18.30;97.30;;;;;;5052305;28;20044;-62
2021/07/15 03:31:07;;;;;;;7.70;7.03;;;18.40;97.10;;;;;;5033602;28;20043;-61
2021/07/15 03:33:37;;;;;;;7.65;6.95;;;18.40;96.80;;;;;;5051501;28;20055;-61
2021/07/15 03:36:08;;;;;;;9.85;6.95;;;18.40;96.80;;;;;;5051330;28;20037;-62
2021/07/15 03:38:34;;;;;;;7.72;6.95;;;18.40;96.80;;;;;;5051128;28;20029;-62
2021/07/15 03:41:04;;;;;;;8.75;7.70;;;18.50;96.90;;;;;;5035171;28;20037;-61
2021/07/15 03:43:32;;;;;;;8.60;7.60;;;18.50;96.60;;;;;;5041223;28;20067;-62
2021/07/15 03:45:59;;;;;;;8.52;6.55;;;18.40;96.80;;;;;;5036626;28;20076;-62
2021/07/15 03:48:27;;;;;;;8.00;7.20;;;18.40;97.10;;;;;;5051324;28;20040;-61
2021/07/15 03:50:59;;;;;;;8.82;7.65;;;18.50;96.80;;;;;;5052632;28;20029;-62
2021/07/15 03:53:26;;;;;;;8.20;7.38;;;18.40;96.70;;;;;;5053520;28;20124;-62
2021/07/15 03:55:56;;;;;;;9.38;8.05;;;18.30;96.70;;;;;;5053442;28;20538;-61
2021/07/15 03:58:22;;;;;;;7.78;7.05;;;18.20;96.80;;;;;;5034339;28;20079;-62
2021/07/15 04:00:49;;;;;;;11.27;8.80;;;18.20;96.80;;;;;;5049871;28;20761;-60
2021/07/15 04:03:20;;;;;;;10.27;7.63;;;18.20;96.70;;;;;;5051290;28;20039;-62
2021/07/15 04:05:46;;;;;;;9.63;7.45;;;18.10;96.80;;;;;;5042746;28;20044;-62
2021/07/15 04:08:15;;;;;;;8.32;6.88;;;18.10;96.80;;;;;;5050637;28;20044;-62
2021/07/15 04:10:43;;;;;;;10.70;7.28;;;18.30;96.50;;;;;;5050793;28;20041;-62
2021/07/15 04:13:10;;;;;;;9.00;6.75;;;18.40;96.40;;;;;;5050621;28;20366;-62
2021/07/15 04:15:51;;;;;;;9.95;7.45;;;18.50;96.30;;;;;;5050637;28;20044;-61
2021/07/15 04:18:19;;;;;;;9.30;7.22;;;18.60;95.90;;;;;;5049999;28;20029;-61
2021/07/15 04:20:46;;;;;;;9.02;7.55;;;18.70;95.60;;;;;;5038971;28;20491;-62
2021/07/15 04:23:12;;;;;;;8.70;7.80;;;18.70;95.90;;;;;;5033094;28;20060;-62
2021/07/15 04:25:40;;;;;;;10.30;7.20;;;18.60;95.90;;;;;;5050364;28;20393;-62
2021/07/15 04:28:06;;;;;;;8.63;7.82;;;18.50;96.00;;;;;;5050255;28;20044;-62
2021/07/15 04:30:33;;;;;;;10.45;7.13;;;18.60;96.10;;;;;;5050387;28;20036;-61
2021/07/15 04:33:02;;;;;;;10.35;7.32;;;18.60;96.10;;;;;;5050510;28;20029;-62
2021/07/15 04:35:30;;;;;;;8.98;6.90;;;18.70;96.10;;;;;;5050499;28;20613;-61
2021/07/15 04:37:57;;;;;;;7.88;7.07;;;18.70;95.90;;;;;;5050353;28;20476;-60
2021/07/15 04:40:24;;;;;;;10.45;6.90;;;18.80;95.90;;;;;;5039684;28;20480;-62
2021/07/15 04:42:53;;;;;;;11.90;7.20;;;18.80;95.80;;;;;;5041004;28;20037;-61
2021/07/15 04:45:24;;;;;;;7.60;6.78;;;18.90;95.80;;;;;;5045127;28;20045;-61
2021/07/15 04:47:50;;;;;;;8.18;6.50;;;19.00;95.70;;;;;;5050425;28;20025;-61
2021/07/15 04:50:17;;;;;;;7.85;7.05;;;19.00;95.50;;;;;;5050517;28;20039;-62
2021/07/15 04:52:45;;;;;;;9.00;6.88;;;19.10;95.40;;;;;;5050292;28;20075;-63
2021/07/15 04:55:13;;;;;;;8.57;7.03;;;19.10;95.30;;;;;;5050411;28;20037;-62
2021/07/15 04:57:40;;;;;;;11.30;7.63;;;19.20;95.20;;;;;;5050241;28;20384;-62
2021/07/15 05:00:09;;;;;;;9.35;7.88;;;19.30;95.10;;;;;;5050378;28;20027;-62
2021/07/15 05:02:36;;;;;;;10.90;8.38;;;19.40;95.00;;;;;;5052898;28;20167;-60
2021/07/15 05:05:06;;;;;;;10.20;7.15;;;19.40;94.80;;;;;;5049577;28;20080;-62
2021/07/15 05:07:34;;;;;;;10.18;6.78;;;19.40;94.70;;;;;;5033479;28;20377;-62
2021/07/15 05:09:59;;;;;;;8.02;6.72;;;19.50;94.40;;;;;;5054058;28;20040;-62
2021/07/15 05:12:25;;;;;;;9.88;6.97;;;19.50;94.30;;;;;;5036296;28;20384;-62
2021/07/15 05:14:52;;;;;;;7.75;6.60;;;19.50;94.40;;;;;;5054078;28;20115;-60
2021/07/15 05:17:18;;;;;;;7.85;6.68;;;19.40;94.50;;;;;;5054267;28;20434;-61
2021/07/15 05:19:44;;;;;;;9.25;7.45;;;19.40;94.60;;;;;;5041623;28;20164;-61
2021/07/15 05:22:10;;;;;;;12.50;7.25;;;19.30;94.60;;;;;;5040127;28;20090;-62
2021/07/15 05:24:35;;;;;;;10.52;7.05;;;19.30;94.70;;;;;;5054190;28;20041;-62
2021/07/15 05:27:02;;;;;;;10.13;7.20;;;19.30;94.70;;;;;;5053887;28;20043;-62
2021/07/15 05:29:28;;;;;;;10.30;7.10;;;19.30;94.60;;;;;;5036610;28;20033;-62
2021/07/15 05:31:54;;;;;;;7.82;6.72;;;19.50;94.40;;;;;;5053824;28;20032;-62
2021/07/15 05:34:20;;;;;;;7.45;6.43;;;19.40;94.50;;;;;;5053903;28;20029;-61
2021/07/15 05:36:46;;;;;;;10.48;6.70;;;19.40;94.30;;;;;;5053639;28;20079;-61
2021/07/15 05:39:12;;;;;;;8.65;6.60;;;19.40;94.20;;;;;;5033827;28;20037;-61
2021/07/15 05:41:38;;;;;;;12.20;6.68;;;19.50;94.30;;;;;;5051330;28;20029;-61
2021/07/15 05:44:03;;;;;;;8.45;5.78;;;19.50;94.30;;;;;;5037769;28;20029;-60
2021/07/15 05:46:29;;;;;;;9.70;6.03;;;19.50;94.30;;;;;;5053734;28;20558;-62
2021/07/15 05:48:55;;;;;;;8.48;6.88;;;19.60;94.20;;;;;;5053661;28;20643;-62
2021/07/15 05:51:20;;;;;;;7.53;6.35;;;19.50;94.50;;;;;;5053611;28;20036;-62
2021/07/15 05:53:46;;;;;;;9.90;6.32;;;19.40;94.80;;;;;;5053284;28;20507;-63
2021/07/15 05:56:11;;;;;;;9.23;6.93;;;19.20;95.00;;;;;;5053349;28;20057;-62
2021/07/15 05:58:37;;;;;;;16.15;7.15;;;19.10;95.40;;;;;;5053284;28;20037;-61
2021/07/15 06:01:03;;;;;;;14.45;6.78;;;19.10;95.50;;;;;;5053231;28;20040;-62
2021/07/15 06:03:28;;;;;;;12.43;7.15;;;19.00;95.90;;;;;;5035579;28;20044;-61
2021/07/15 06:05:54;;;;;;;8.57;6.63;;;19.00;96.00;;;;;;5044495;28;20032;-62
2021/07/15 06:08:20;;;;;;;14.82;8.15;;;19.20;95.70;;;;;;5053151;28;20081;-61
2021/07/15 06:10:45;;;;;;;13.85;7.43;;;19.40;95.30;;;;;;5053407;28;20404;-63
2021/07/15 06:13:13;;;;;;;21.35;9.63;;;19.30;95.10;;;;;;5052950;28;20029;-62
2021/07/15 06:15:41;;;;;;;14.85;8.35;;;19.30;95.00;;;;;;5052919;28;20029;-60
2021/07/15 06:18:08;;;;;;;17.33;8.38;;;19.20;95.30;;;;;;5035230;28;20028;-63
2021/07/15 06:20:34;;;;;;;17.73;7.50;;;19.20;95.70;;;;;;5040552;28;20052;-62
2021/07/15 06:22:59;;;;;;;14.98;8.63;;;19.20;95.50;;;;;;5052926;28;20122;-62
2021/07/15 06:25:25;;;;;;;12.95;7.22;;;19.20;95.40;;;;;;5053162;28;20033;-62
2021/07/15 06:27:54;;;;;;;8.65;7.75;;;19.20;95.40;;;;;;5052255;28;20033;-62
2021/07/15 06:30:20;;;;;;;15.60;7.95;;;19.30;95.40;;;;;;5053200;28;20043;-63
2021/07/15 06:32:46;;;;;;;11.00;7.70;;;19.40;95.30;;;;;;5052485;28;20068;-62
2021/07/15 06:35:15;;;;;;;15.57;7.85;;;19.60;95.10;;;;;;5052913;28;20148;-59
2021/07/15 06:37:41;;;;;;;19.73;14.25;;;19.70;94.90;;;;;;5052340;28;20299;-62
2021/07/15 06:40:09;;;;;;;9.85;7.00;;;19.80;94.70;;;;;;5043623;28;20668;-62
2021/07/15 06:42:35;;;;;;;10.65;7.40;;;19.70;94.40;;;;;;5043463;28;20036;-61
2021/07/15 06:45:03;;;;;;;10.77;7.20;;;19.60;94.70;;;;;;5031585;28;20055;-63
2021/07/15 06:47:28;;;;;;;12.57;8.50;;;19.40;94.90;;;;;;5051962;28;20051;-62
2021/07/15 06:49:54;;;;;;;8.02;7.03;;;19.30;95.30;;;;;;5052891;28;20033;-62
2021/07/15 06:52:19;;;;;;;13.98;7.60;;;19.30;95.30;;;;;;5052109;28;20504;-60
2021/07/15 06:54:45;;;;;;;10.07;6.88;;;19.30;95.50;;;;;;5053309;28;20033;-61
2021/07/15 06:57:11;;;;;;;8.57;6.68;;;19.50;95.30;;;;;;5053178;28;20029;-62
2021/07/15 06:59:36;;;;;;;8.32;6.47;;;19.50;95.40;;;;;;5053898;28;20048;-61
2021/07/15 07:02:02;;;;;;;7.03;6.32;;;19.70;95.10;;;;;;5053213;28;20029;-62
2021/07/15 07:04:28;;;;;;;9.85;7.28;;;19.80;94.90;;;;;;5053219;28;20044;-62
2021/07/15 07:06:53;;;;;;;7.80;6.72;;;20.00;94.70;;;;;;5038286;28;20041;-61
2021/07/15 07:09:19;;;;;;;9.55;6.97;;;20.20;94.40;;;;;;5042201;28;20527;-61
2021/07/15 07:11:44;;;;;;;8.95;6.45;;;20.40;94.20;;;;;;5051997;28;20543;-62
2021/07/15 07:14:10;;;;;;;10.27;6.20;;;20.60;94.00;;;;;;5051458;28;20033;-62
2021/07/15 07:16:36;;;;;;;6.93;6.32;;;20.70;93.60;;;;;;5047091;28;20067;-62
2021/07/15 07:19:01;;;;;;;8.68;6.00;;;20.90;93.30;;;;;;5046935;28;20048;-63
2021/07/15 07:21:30;;;;;;;8.18;6.03;;;21.20;92.60;;;;;;5041612;28;20056;-62
2021/07/15 07:23:56;;;;;;;5.95;5.43;;;21.30;92.00;;;;;;5044691;28;20131;-62
2021/07/15 07:26:21;;;;;;;5.63;5.13;;;21.30;91.40;;;;;;5038724;28;20488;-62
2021/07/15 07:28:47;;;;;;;6.38;5.78;;;21.40;91.40;;;;;;5051522;28;20036;-62
2021/07/15 07:31:13;;;;;;;6.22;5.50;;;21.50;91.50;;;;;;5033957;28;20052;-62
2021/07/15 07:33:40;;;;;;;9.07;5.18;;;21.50;91.60;;;;;;5041034;28;20046;-63
2021/07/15 07:36:06;;;;;;;6.05;5.45;;;21.50;91.70;;;;;;5038029;28;20043;-63
2021/07/15 07:38:32;;;;;;;5.93;5.07;;;21.30;91.80;;;;;;5034856;28;20033;-63
2021/07/15 07:40:57;;;;;;;8.82;6.35;;;21.40;92.00;;;;;;5044379;28;20060;-62
2021/07/15 07:43:23;;;;;;;6.07;4.70;;;21.50;91.30;;;;;;5034912;28;20110;-62
2021/07/15 07:45:49;;;;;;;6.85;4.82;;;21.40;91.30;;;;;;5048385;28;20048;-61
2021/07/15 07:48:14;;;;;;;6.38;4.70;;;21.50;91.10;;;;;;5035283;28;20037;-63
2021/07/15 07:50:40;;;;;;;6.10;5.00;;;21.60;90.70;;;;;;5052163;28;20543;-63
2021/07/15 07:53:05;;;;;;;5.75;4.50;;;21.50;91.10;;;;;;5052011;28;20033;-61
2021/07/15 07:55:31;;;;;;;10.48;5.03;;;21.50;90.80;;;;;;5051912;28;20974;-61
2021/07/15 07:57:56;;;;;;;5.13;4.32;;;21.60;90.80;;;;;;5051338;28;20111;-63
2021/07/15 08:00:22;;;;;;;5.38;4.45;;;21.70;90.40;;;;;;5047376;28;20640;-63
2021/07/15 08:02:48;;;;;;;6.32;4.68;;;21.70;90.50;;;;;;5052307;28;20553;-62
2021/07/15 08:05:17;;;;;;;6.20;4.35;;;21.60;90.50;;;;;;5031814;28;20029;-61
2021/07/15 08:07:43;;;;;;;5.00;4.50;;;21.50;90.40;;;;;;5051989;28;20388;-61
2021/07/15 08:10:10;;;;;;;6.25;4.78;;;21.60;90.50;;;;;;5051581;28;20497;-59
2021/07/15 08:12:38;;;;;;;4.63;4.22;;;21.70;90.10;;;;;;5050390;28;20128;-61
2021/07/15 08:15:06;;;;;;;6.78;4.18;;;22.00;90.10;;;;;;5051649;28;20032;-61
2021/07/15 08:17:32;;;;;;;5.20;4.38;;;22.00;90.10;;;;;;5051146;28;20083;-61
2021/07/15 08:19:57;;;;;;;5.40;4.47;;;22.00;90.00;;;;;;5043592;28;20435;-59
2021/07/15 08:22:23;;;;;;;6.05;4.32;;;22.10;89.50;;;;;;5029756;28;20063;-61
2021/07/15 08:24:48;;;;;;;5.82;4.55;;;22.30;88.80;;;;;;5050772;28;20033;-61
2021/07/15 08:27:14;;;;;;;4.68;4.28;;;22.30;88.80;;;;;;5049078;28;20049;-60
2021/07/15 08:29:39;;;;;;;5.82;4.00;;;22.40;88.80;;;;;;5045062;28;20040;-61
2021/07/15 08:32:06;;;;;;;5.90;4.80;;;22.60;87.70;;;;;;5055341;28;20030;-61
2021/07/15 08:34:32;;;;;;;6.00;4.00;;;22.80;87.40;;;;;;5034942;28;20446;-60
2021/07/15 08:36:57;;;;;;;5.53;4.47;;;22.80;87.30;;;;;;5040476;28;20441;-61
2021/07/15 08:39:24;;;;;;;5.05;4.00;;;22.90;86.90;;;;;;5047572;28;20121;-61
2021/07/15 08:41:50;;;;;;;7.07;4.50;;;22.90;86.60;;;;;;5039792;28;20067;-61
2021/07/15 08:44:16;;;;;;;5.55;4.07;;;22.90;87.40;;;;;;5034389;28;20045;-61
2021/07/15 08:46:44;;;;;;;4.25;3.85;;;23.10;86.60;;;;;;5034066;28;20045;-60
2021/07/15 08:49:11;;;;;;;4.65;4.15;;;23.20;85.70;;;;;;5037234;28;20086;-62
2021/07/15 08:51:37;;;;;;;5.00;4.00;;;23.30;85.20;;;;;;5019121;28;20040;-61
2021/07/15 08:54:05;;;;;;;5.05;4.03;;;23.30;84.90;;;;;;5036681;28;20033;-61
2021/07/15 08:56:38;;;;;;;4.75;4.20;;;23.40;84.40;;;;;;4999820;28;20033;-61
2021/07/15 08:59:12;;;;;;;5.47;4.68;;;23.20;84.80;;;;;;5033992;28;20029;-60
2021/07/15 09:01:45;;;;;;;6.03;4.60;;;23.30;85.20;;;;;;5035612;28;20114;-60
2021/07/15 09:04:11;;;;;;;4.97;4.10;;;23.40;84.50;;;;;;5034567;28;20512;-60
2021/07/15 09:06:40;;;;;;;5.50;4.20;;;23.60;83.60;;;;;;5035518;28;20060;-61
2021/07/15 09:09:06;;;;;;;4.30;3.90;;;23.50;82.20;;;;;;5033818;28;20052;-61
2021/07/15 09:11:32;;;;;;;6.28;3.97;;;23.60;83.20;;;;;;5036911;28;20393;-62
2021/07/15 09:13:58;;;;;;;4.43;3.90;;;23.40;83.60;;;;;;5033534;28;20033;-62
2021/07/15 09:16:23;;;;;;;5.22;3.85;;;23.60;82.20;;;;;;5038669;28;20067;-61
2021/07/15 09:19:04;;;;;;;4.63;4.03;;;23.30;83.00;;;;;;5038163;28;20033;-61
2021/07/15 09:21:35;;;;;;;3.92;3.63;;;23.30;82.30;;;;;;5039932;28;20041;-63
2021/07/15 09:24:03;;;;;;;4.90;4.10;;;23.20;82.60;;;;;;5033634;28;20038;-63
2021/07/15 09:26:30;;;;;;;5.07;3.83;;;23.10;82.70;;;;;;5016363;28;20065;-62
2021/07/15 09:29:20;;;;;;;4.13;3.72;;;23.40;82.50;;;;;;5051168;28;20021;-62
2021/07/15 09:32:00;;;;;;;5.43;3.70;;;23.50;81.70;;;;;;5034072;28;20053;-61
2021/07/15 09:34:29;;;;;;;3.75;3.45;;;23.50;81.10;;;;;;5037235;28;20041;-60
2021/07/15 09:36:55;;;;;;;4.45;3.60;;;23.50;80.10;;;;;;5048366;28;20067;-61
2021/07/15 09:39:23;;;;;;;4.13;3.72;;;23.60;79.50;;;;;;5054400;28;20021;-60
2021/07/15 09:42:14;;;;;;;4.50;4.10;;;23.90;78.40;;;;;;5057351;28;20029;-61
2021/07/15 09:44:43;;;;;;;4.80;3.78;;;24.00;78.80;;;;;;5039703;28;20079;-62
2021/07/15 09:47:29;;;;;;;3.83;3.42;;;24.00;77.90;;;;;;5053003;28;20029;-62
2021/07/15 09:49:54;;;;;;;5.25;3.40;;;24.00;78.70;;;;;;5045271;28;20112;-62
2021/07/15 09:52:22;;;;;;;5.32;3.40;;;24.20;76.70;;;;;;5047111;28;20508;-62
2021/07/15 09:54:47;;;;;;;3.95;3.53;;;24.40;75.90;;;;;;5054101;28;20295;-62
2021/07/15 09:57:25;;;;;;;3.95;3.58;;;24.70;75.50;;;;;;5053205;28;20025;-61
2021/07/15 09:59:51;;;;;;;4.25;3.85;;;25.00;75.10;;;;;;5035630;28;20051;-62
2021/07/15 10:02:29;;;;;;;4.25;3.45;;;25.20;75.10;;;;;;5053990;28;20037;-62
2021/07/15 10:04:54;;;;;;;4.00;3.60;;;25.30;75.30;;;;;;5049497;28;20037;-62
2021/07/15 10:07:26;;;;;;;3.85;3.55;;;25.40;75.30;;;;;;5049611;28;20041;-61
2021/07/15 10:10:15;;;;;;;3.83;3.53;;;25.60;76.00;;;;;;5050744;28;20100;-62
2021/07/15 10:12:41;;;;;;;5.10;4.20;;;25.80;75.10;;;;;;5053907;28;20025;-61
2021/07/15 10:15:11;;;;;;;3.95;3.55;;;26.00;74.00;;;;;;5054093;28;20504;-63
2021/07/15 10:17:42;;;;;;;4.82;3.55;;;26.00;73.40;;;;;;5053699;28;20040;-62
2021/07/15 10:20:14;;;;;;;4.22;3.80;;;25.70;72.30;;;;;;5053260;28;20090;-62
2021/07/15 10:22:40;;;;;;;4.90;3.80;;;25.70;72.70;;;;;;5046076;28;20029;-62
2021/07/15 10:25:08;;;;;;;4.50;3.83;;;25.60;73.10;;;;;;5053628;28;20441;-61
2021/07/15 10:27:37;;;;;;;5.47;4.05;;;25.70;73.10;;;;;;5053262;28;20090;-61
2021/07/15 10:30:04;;;;;;;5.53;4.65;;;25.60;72.90;;;;;;5052935;28;20814;-61
2021/07/15 10:32:35;;;;;;;4.22;3.72;;;25.40;72.60;;;;;;5035734;28;20625;-61
2021/07/15 10:35:02;;;;;;;3.85;3.53;;;25.60;72.40;;;;;;5051920;28;20029;-62
2021/07/15 10:37:28;;;;;;;4.95;3.65;;;25.60;72.40;;;;;;5052992;28;20446;-61
2021/07/15 10:39:54;;;;;;;4.05;3.65;;;25.60;72.30;;;;;;5053969;28;20124;-62
2021/07/15 10:42:20;;;;;;;4.45;3.65;;;25.20;72.70;;;;;;5045232;28;20513;-61
2021/07/15 10:44:47;;;;;;;6.88;4.47;;;25.00;73.70;;;;;;5046570;28;20063;-61
2021/07/15 10:47:13;;;;;;;4.30;3.55;;;24.90;74.20;;;;;;5047120;28;20554;-61
2021/07/15 10:49:41;;;;;;;4.35;3.95;;;24.90;73.10;;;;;;5041594;28;20037;-63
2021/07/15 10:52:08;;;;;;;4.88;3.97;;;25.10;73.60;;;;;;5042993;28;20044;-56
2021/07/15 10:54:36;;;;;;;3.95;3.63;;;25.20;72.80;;;;;;5053267;28;20059;-59
2021/07/15 10:57:01;;;;;;;4.35;3.90;;;24.90;72.90;;;;;;5052132;28;20031;-59
2021/07/15 10:59:31;;;;;;;3.80;3.47;;;25.20;72.10;;;;;;5051021;28;20116;-56
2021/07/15 11:02:02;;;;;;;4.22;3.78;;;25.50;71.60;;;;;;5034467;28;20070;-58
2021/07/15 11:04:38;;;;;;;3.55;3.25;;;25.60;71.10;;;;;;5052067;28;20040;-57
2021/07/15 11:07:22;;;;;;;4.07;3.67;;;25.60;71.30;;;;;;5045310;28;20053;-56
2021/07/15 11:09:49;;;;;;;4.85;3.72;;;25.80;70.60;;;;;;5052162;28;20061;-56
2021/07/15 11:12:32;;;;;;;4.47;3.50;;;25.80;70.10;;;;;;5033873;28;20021;-59
2021/07/15 11:15:13;;;;;;;4.30;3.47;;;25.60;70.70;;;;;;5032198;28;20042;-54
2021/07/15 11:17:45;;;;;;;4.00;3.60;;;25.70;71.10;;;;;;5030266;28;20504;-59
2021/07/15 11:20:23;;;;;;;5.03;3.42;;;25.60;71.10;;;;;;5030665;28;20037;-55
2021/07/15 11:22:59;;;;;;;4.20;3.70;;;25.60;70.80;;;;;;5031152;28;20029;-58
2021/07/15 11:25:28;;;;;;;4.10;3.70;;;25.60;70.70;;;;;;5033737;28;20022;-57
2021/07/15 11:28:03;;;;;;;4.53;3.58;;;25.30;71.20;;;;;;5032611;28;20020;-56
2021/07/15 11:30:34;;;;;;;5.53;3.72;;;25.40;71.30;;;;;;5030489;28;20029;-57
2021/07/15 11:33:18;;;;;;;4.03;3.63;;;25.50;71.30;;;;;;5030392;28;20108;-59
2021/07/15 11:35:55;;;;;;;4.18;3.78;;;25.70;71.60;;;;;;5029967;28;20017;-57
2021/07/15 11:38:25;;;;;;;5.32;4.05;;;25.90;72.00;;;;;;5030330;28;20030;-57
2021/07/15 11:40:52;;;;;;;7.43;4.22;;;25.70;72.10;;;;;;5034525;28;20499;-59
2021/07/15 11:43:26;;;;;;;6.43;4.05;;;25.70;71.70;;;;;;5031210;28;20650;-58
2021/07/15 11:46:20;;;;;;;4.30;3.67;;;25.60;72.60;;;;;;5030031;28;20052;-55
2021/07/15 11:48:45;;;;;;;4.53;3.60;;;25.70;72.00;;;;;;5030190;28;20038;-58
2021/07/15 11:51:38;;;;;;;4.75;4.28;;;25.60;72.40;;;;;;5030114;28;20037;-58
2021/07/15 11:54:31;;;;;;;4.10;3.80;;;25.80;70.90;;;;;;5030044;28;20040;-56
2021/07/15 11:57:13;;;;;;;4.10;3.80;;;25.80;72.10;;;;;;5029775;28;20025;-60
2021/07/15 11:59:46;;;;;;;4.35;3.95;;;25.80;72.00;;;;;;5030301;28;20033;-58
2021/07/15 12:02:39;;;;;;;4.45;3.88;;;25.70;71.70;;;;;;5032564;28;20025;-56
2021/07/15 12:05:13;;;;;;;4.38;3.67;;;25.60;70.80;;;;;;5029973;28;20389;-60
2021/07/15 12:07:46;;;;;;;4.00;3.42;;;25.60;71.10;;;;;;5029628;28;20123;-59
2021/07/15 12:10:26;;;;;;;4.53;4.10;;;25.50;71.00;;;;;;5029826;28;20030;-59
2021/07/15 12:12:55;;;;;;;5.32;3.85;;;25.50;71.80;;;;;;5029787;28;20036;-58
2021/07/15 12:15:24;;;;;;;5.47;3.95;;;25.40;73.00;;;;;;5032890;28;20049;-55
2021/07/15 12:17:58;;;;;;;3.97;3.60;;;25.40;72.90;;;;;;5011750;28;20098;-56
2021/07/15 12:20:48;;;;;;;6.22;3.83;;;25.50;72.40;;;;;;5047083;28;20381;-55
2021/07/15 12:23:25;;;;;;;4.15;3.75;;;25.50;72.10;;;;;;5039104;28;20469;-54
2021/07/15 12:25:53;;;;;;;4.95;3.90;;;25.60;71.70;;;;;;5050845;28;20029;-57
2021/07/15 12:28:24;;;;;;;6.18;4.55;;;25.60;71.40;;;;;;5053387;28;20021;-58
2021/07/15 12:31:00;;;;;;;6.32;4.35;;;25.60;72.00;;;;;;5052049;28;20095;-55
2021/07/15 12:33:43;;;;;;;4.45;3.90;;;25.60;72.00;;;;;;5051057;28;20086;-58
2021/07/15 12:36:12;;;;;;;4.20;3.80;;;25.40;71.60;;;;;;5050901;28;20220;-55
2021/07/15 12:38:39;;;;;;;4.28;3.45;;;25.10;71.70;;;;;;5051003;28;20090;-57
2021/07/15 12:41:11;;;;;;;3.70;3.40;;;24.90;72.00;;;;;;5044814;28;20025;-60
2021/07/15 12:43:48;;;;;;;6.40;4.38;;;24.80;74.10;;;;;;5032825;28;20092;-56
2021/07/15 12:46:43;;;;;;;8.13;4.28;;;24.80;73.80;;;;;;5029200;28;20079;-59
2021/07/15 12:49:08;;;;;;;;;;;24.90;73.50;;;;;;5020864;28;20042;-54
2021/07/15 12:51:44;;;;;;;4.25;3.70;;;25.10;72.60;;;;;;5029643;28;20380;-58
2021/07/15 12:54:14;;;;;;;4.93;3.60;;;25.20;72.40;;;;;;5029236;28;20036;-57
2021/07/15 12:56:41;;;;;;;4.72;3.50;;;25.40;72.50;;;;;;5031838;28;20112;-58
2021/07/15 12:59:11;;;;;;;5.05;3.70;;;25.70;72.50;;;;;;5029351;28;20040;-59